sensor_id;sensor_type;location;lat;lon;timestamp;P1;durP1;ratioP1;P2;durP2;ratioP2
27939;SDS011;15275;51.716;14.324;2022-10-26T00:00:49;10.45;;;2.40;;
27939;SDS011;15275;51.716;14.324;2022-10-26T00:03:16;2.28;;;2.03;;
27939;SDS011;15275;51.716;14.324;2022-10-26T00:05:42;4.18;;;2.38;;
27939;SDS011;15275;51.716;14.324;2022-10-26T00:08:08;5.03;;;2.30;;
27939;SDS011;15275;51.716;14.324;2022-10-26T00:10:35;3.55;;;2.22;;
27939;SDS011;15275;51.716;14.324;2022-10-26T00:13:02;4.22;;;2.50;;
27939;SDS011;15275;51.716;14.324;2022-10-26T00:15:30;3.10;;;2.15;;
27939;SDS011;15275;51.716;14.324;2022-10-26T00:17:56;4.50;;;2.13;;
27939;SDS011;15275;51.716;14.324;2022-10-26T00:20:22;4.20;;;2.60;;
27939;SDS011;15275;51.716;14.324;2022-10-26T00:22:48;9.43;;;2.63;;
27939;SDS011;15275;51.716;14.324;2022-10-26T00:25:14;4.82;;;2.83;;
27939;SDS011;15275;51.716;14.324;2022-10-26T00:27:40;3.85;;;2.78;;
27939;SDS011;15275;51.716;14.324;2022-10-26T00:30:06;2.90;;;2.35;;
27939;SDS011;15275;51.716;14.324;2022-10-26T00:32:32;4.90;;;2.38;;
27939;SDS011;15275;51.716;14.324;2022-10-26T00:34:58;5.18;;;2.60;;
27939;SDS011;15275;51.716;14.324;2022-10-26T00:37:24;3.17;;;2.40;;
27939;SDS011;15275;51.716;14.324;2022-10-26T00:39:50;6.57;;;2.55;;
27939;SDS011;15275;51.716;14.324;2022-10-26T00:42:20;10.18;;;2.70;;
27939;SDS011;15275;51.716;14.324;2022-10-26T00:49:53;5.05;;;2.80;;
27939;SDS011;15275;51.716;14.324;2022-10-26T00:52:22;2.80;;;2.00;;
27939;SDS011;15275;51.716;14.324;2022-10-26T00:54:49;4.88;;;2.35;;
27939;SDS011;15275;51.716;14.324;2022-10-26T00:57:15;8.18;;;2.78;;
27939;SDS011;15275;51.716;14.324;2022-10-26T00:59:42;6.38;;;2.58;;
27939;SDS011;15275;51.716;14.324;2022-10-26T01:02:10;5.15;;;2.88;;
27939;SDS011;15275;51.716;14.324;2022-10-26T01:04:37;5.97;;;2.55;;
27939;SDS011;15275;51.716;14.324;2022-10-26T01:07:04;11.95;;;2.83;;
27939;SDS011;15275;51.716;14.324;2022-10-26T01:09:32;3.35;;;2.13;;
27939;SDS011;15275;51.716;14.324;2022-10-26T01:11:59;4.00;;;2.13;;
27939;SDS011;15275;51.716;14.324;2022-10-26T01:14:25;4.20;;;2.30;;
27939;SDS011;15275;51.716;14.324;2022-10-26T01:16:59;4.60;;;2.35;;
27939;SDS011;15275;51.716;14.324;2022-10-26T01:22:47;2.80;;;2.30;;
27939;SDS011;15275;51.716;14.324;2022-10-26T01:31:37;5.22;;;1.98;;
27939;SDS011;15275;51.716;14.324;2022-10-26T01:34:11;7.88;;;2.40;;
27939;SDS011;15275;51.716;14.324;2022-10-26T01:36:52;4.78;;;2.47;;
27939;SDS011;15275;51.716;14.324;2022-10-26T01:39:43;6.85;;;2.60;;
27939;SDS011;15275;51.716;14.324;2022-10-26T01:42:14;3.88;;;2.55;;
27939;SDS011;15275;51.716;14.324;2022-10-26T01:44:44;4.63;;;1.77;;
27939;SDS011;15275;51.716;14.324;2022-10-26T01:47:23;5.82;;;2.15;;
27939;SDS011;15275;51.716;14.324;2022-10-26T01:49:52;2.90;;;1.88;;
27939;SDS011;15275;51.716;14.324;2022-10-26T01:52:20;3.45;;;1.73;;
27939;SDS011;15275;51.716;14.324;2022-10-26T01:54:48;4.32;;;2.10;;
27939;SDS011;15275;51.716;14.324;2022-10-26T01:57:15;3.30;;;1.92;;
27939;SDS011;15275;51.716;14.324;2022-10-26T02:05:44;4.28;;;2.15;;
27939;SDS011;15275;51.716;14.324;2022-10-26T02:08:31;5.18;;;1.67;;
27939;SDS011;15275;51.716;14.324;2022-10-26T02:11:30;2.65;;;1.92;;
27939;SDS011;15275;51.716;14.324;2022-10-26T02:16:51;2.25;;;2.03;;
27939;SDS011;15275;51.716;14.324;2022-10-26T02:19:31;4.10;;;1.80;;
27939;SDS011;15275;51.716;14.324;2022-10-26T02:22:10;2.95;;;2.00;;
27939;SDS011;15275;51.716;14.324;2022-10-26T02:24:40;2.50;;;1.90;;
27939;SDS011;15275;51.716;14.324;2022-10-26T02:27:09;3.08;;;2.28;;
27939;SDS011;15275;51.716;14.324;2022-10-26T02:29:40;4.13;;;2.25;;
27939;SDS011;15275;51.716;14.324;2022-10-26T02:32:08;5.75;;;2.72;;
27939;SDS011;15275;51.716;14.324;2022-10-26T02:34:36;5.35;;;2.00;;
27939;SDS011;15275;51.716;14.324;2022-10-26T02:37:03;3.45;;;2.25;;
27939;SDS011;15275;51.716;14.324;2022-10-26T02:39:31;2.88;;;1.88;;
27939;SDS011;15275;51.716;14.324;2022-10-26T02:42:00;3.15;;;1.80;;
27939;SDS011;15275;51.716;14.324;2022-10-26T02:44:29;4.05;;;2.10;;
27939;SDS011;15275;51.716;14.324;2022-10-26T02:47:00;3.33;;;1.95;;
27939;SDS011;15275;51.716;14.324;2022-10-26T02:49:27;6.60;;;2.13;;
27939;SDS011;15275;51.716;14.324;2022-10-26T02:51:58;6.30;;;2.47;;
27939;SDS011;15275;51.716;14.324;2022-10-26T02:55:09;2.30;;;1.70;;
27939;SDS011;15275;51.716;14.324;2022-10-26T02:57:39;2.50;;;2.00;;
27939;SDS011;15275;51.716;14.324;2022-10-26T03:00:09;2.47;;;1.92;;
27939;SDS011;15275;51.716;14.324;2022-10-26T03:02:43;9.95;;;2.42;;
27939;SDS011;15275;51.716;14.324;2022-10-26T03:05:13;3.42;;;1.67;;
27939;SDS011;15275;51.716;14.324;2022-10-26T03:07:44;2.08;;;1.88;;
27939;SDS011;15275;51.716;14.324;2022-10-26T03:10:10;4.65;;;1.88;;
27939;SDS011;15275;51.716;14.324;2022-10-26T03:12:36;2.88;;;1.80;;
27939;SDS011;15275;51.716;14.324;2022-10-26T03:15:03;3.33;;;1.90;;
27939;SDS011;15275;51.716;14.324;2022-10-26T03:17:29;3.45;;;1.73;;
27939;SDS011;15275;51.716;14.324;2022-10-26T03:19:55;2.00;;;1.80;;
27939;SDS011;15275;51.716;14.324;2022-10-26T03:22:21;4.68;;;2.13;;
27939;SDS011;15275;51.716;14.324;2022-10-26T03:24:47;2.85;;;1.80;;
27939;SDS011;15275;51.716;14.324;2022-10-26T03:27:13;1.65;;;1.50;;
27939;SDS011;15275;51.716;14.324;2022-10-26T03:29:39;3.80;;;1.80;;
27939;SDS011;15275;51.716;14.324;2022-10-26T03:32:05;2.30;;;1.85;;
27939;SDS011;15275;51.716;14.324;2022-10-26T03:34:31;2.38;;;1.80;;
27939;SDS011;15275;51.716;14.324;2022-10-26T03:36:58;2.80;;;1.95;;
27939;SDS011;15275;51.716;14.324;2022-10-26T03:39:23;2.67;;;1.70;;
27939;SDS011;15275;51.716;14.324;2022-10-26T03:41:49;3.97;;;1.80;;
27939;SDS011;15275;51.716;14.324;2022-10-26T03:44:15;5.13;;;2.25;;
27939;SDS011;15275;51.716;14.324;2022-10-26T03:46:41;6.22;;;1.77;;
27939;SDS011;15275;51.716;14.324;2022-10-26T03:49:07;4.82;;;1.90;;
27939;SDS011;15275;51.716;14.324;2022-10-26T03:51:33;3.25;;;2.05;;
27939;SDS011;15275;51.716;14.324;2022-10-26T03:53:58;3.42;;;1.95;;
27939;SDS011;15275;51.716;14.324;2022-10-26T03:56:24;2.88;;;1.60;;
27939;SDS011;15275;51.716;14.324;2022-10-26T03:58:50;1.65;;;1.48;;
27939;SDS011;15275;51.716;14.324;2022-10-26T04:01:16;4.93;;;2.10;;
27939;SDS011;15275;51.716;14.324;2022-10-26T04:03:42;9.95;;;1.75;;
27939;SDS011;15275;51.716;14.324;2022-10-26T04:06:08;2.33;;;1.73;;
27939;SDS011;15275;51.716;14.324;2022-10-26T04:08:34;4.75;;;1.98;;
27939;SDS011;15275;51.716;14.324;2022-10-26T04:11:00;2.92;;;1.85;;
27939;SDS011;15275;51.716;14.324;2022-10-26T04:13:26;5.97;;;1.95;;
27939;SDS011;15275;51.716;14.324;2022-10-26T04:15:52;4.07;;;1.90;;
27939;SDS011;15275;51.716;14.324;2022-10-26T04:18:17;4.18;;;2.80;;
27939;SDS011;15275;51.716;14.324;2022-10-26T04:20:43;4.32;;;2.90;;
27939;SDS011;15275;51.716;14.324;2022-10-26T04:23:10;8.80;;;2.50;;
27939;SDS011;15275;51.716;14.324;2022-10-26T04:25:39;3.33;;;2.90;;
27939;SDS011;15275;51.716;14.324;2022-10-26T04:28:07;4.65;;;3.33;;
27939;SDS011;15275;51.716;14.324;2022-10-26T04:30:34;8.75;;;4.18;;
27939;SDS011;15275;51.716;14.324;2022-10-26T04:33:00;8.15;;;4.60;;
27939;SDS011;15275;51.716;14.324;2022-10-26T04:35:27;6.80;;;4.25;;
27939;SDS011;15275;51.716;14.324;2022-10-26T04:37:57;8.07;;;3.92;;
27939;SDS011;15275;51.716;14.324;2022-10-26T04:40:28;7.25;;;4.30;;
27939;SDS011;15275;51.716;14.324;2022-10-26T04:42:54;6.03;;;4.63;;
27939;SDS011;15275;51.716;14.324;2022-10-26T04:45:20;8.65;;;4.72;;
27939;SDS011;15275;51.716;14.324;2022-10-26T04:47:47;8.10;;;5.07;;
27939;SDS011;15275;51.716;14.324;2022-10-26T04:50:17;6.30;;;5.18;;
27939;SDS011;15275;51.716;14.324;2022-10-26T04:52:43;4.85;;;4.07;;
27939;SDS011;15275;51.716;14.324;2022-10-26T04:55:14;6.57;;;4.10;;
27939;SDS011;15275;51.716;14.324;2022-10-26T04:57:42;4.80;;;4.40;;
27939;SDS011;15275;51.716;14.324;2022-10-26T05:00:09;9.13;;;4.43;;
27939;SDS011;15275;51.716;14.324;2022-10-26T05:02:35;7.70;;;3.70;;
27939;SDS011;15275;51.716;14.324;2022-10-26T05:05:01;6.55;;;3.95;;
27939;SDS011;15275;51.716;14.324;2022-10-26T05:07:27;5.38;;;3.53;;
27939;SDS011;15275;51.716;14.324;2022-10-26T05:09:53;5.20;;;2.88;;
27939;SDS011;15275;51.716;14.324;2022-10-26T05:12:19;5.63;;;3.70;;
27939;SDS011;15275;51.716;14.324;2022-10-26T05:14:45;4.68;;;2.97;;
27939;SDS011;15275;51.716;14.324;2022-10-26T05:17:11;3.22;;;2.90;;
27939;SDS011;15275;51.716;14.324;2022-10-26T05:19:37;3.95;;;2.88;;
27939;SDS011;15275;51.716;14.324;2022-10-26T05:22:02;2.67;;;2.35;;
27939;SDS011;15275;51.716;14.324;2022-10-26T05:24:28;4.30;;;2.75;;
27939;SDS011;15275;51.716;14.324;2022-10-26T05:26:54;8.05;;;2.90;;
27939;SDS011;15275;51.716;14.324;2022-10-26T05:29:20;4.07;;;2.97;;
27939;SDS011;15275;51.716;14.324;2022-10-26T05:31:46;4.30;;;2.75;;
27939;SDS011;15275;51.716;14.324;2022-10-26T05:34:12;3.72;;;2.47;;
27939;SDS011;15275;51.716;14.324;2022-10-26T05:36:37;3.97;;;2.50;;
27939;SDS011;15275;51.716;14.324;2022-10-26T05:39:03;4.07;;;2.47;;
27939;SDS011;15275;51.716;14.324;2022-10-26T05:41:29;5.47;;;2.05;;
27939;SDS011;15275;51.716;14.324;2022-10-26T05:43:55;3.63;;;2.40;;
27939;SDS011;15275;51.716;14.324;2022-10-26T05:46:21;4.40;;;2.10;;
27939;SDS011;15275;51.716;14.324;2022-10-26T05:48:47;4.03;;;2.05;;
27939;SDS011;15275;51.716;14.324;2022-10-26T05:51:13;3.83;;;2.33;;
27939;SDS011;15275;51.716;14.324;2022-10-26T05:53:38;4.45;;;2.88;;
27939;SDS011;15275;51.716;14.324;2022-10-26T05:56:18;5.00;;;2.10;;
27939;SDS011;15275;51.716;14.324;2022-10-26T05:58:48;4.18;;;3.13;;
27939;SDS011;15275;51.716;14.324;2022-10-26T06:06:56;7.72;;;6.20;;
27939;SDS011;15275;51.716;14.324;2022-10-26T06:09:23;11.43;;;8.13;;
27939;SDS011;15275;51.716;14.324;2022-10-26T06:11:49;10.15;;;9.15;;
27939;SDS011;15275;51.716;14.324;2022-10-26T06:14:15;7.75;;;6.53;;
27939;SDS011;15275;51.716;14.324;2022-10-26T06:19:38;6.57;;;5.88;;
27939;SDS011;15275;51.716;14.324;2022-10-26T06:25:59;5.18;;;3.35;;
27939;SDS011;15275;51.716;14.324;2022-10-26T06:28:38;7.40;;;3.55;;
27939;SDS011;15275;51.716;14.324;2022-10-26T06:31:19;5.68;;;3.35;;
27939;SDS011;15275;51.716;14.324;2022-10-26T06:33:46;8.20;;;3.50;;
27939;SDS011;15275;51.716;14.324;2022-10-26T06:36:22;5.72;;;4.38;;
27939;SDS011;15275;51.716;14.324;2022-10-26T06:38:54;8.68;;;2.90;;
27939;SDS011;15275;51.716;14.324;2022-10-26T06:41:29;7.10;;;3.17;;
27939;SDS011;15275;51.716;14.324;2022-10-26T06:43:57;6.00;;;3.15;;
27939;SDS011;15275;51.716;14.324;2022-10-26T06:52:28;6.22;;;2.97;;
27939;SDS011;15275;51.716;14.324;2022-10-26T06:55:11;5.90;;;3.10;;
27939;SDS011;15275;51.716;14.324;2022-10-26T06:57:39;3.58;;;2.55;;
27939;SDS011;15275;51.716;14.324;2022-10-26T07:00:09;4.70;;;2.78;;
27939;SDS011;15275;51.716;14.324;2022-10-26T07:02:45;3.38;;;2.28;;
27939;SDS011;15275;51.716;14.324;2022-10-26T07:05:12;4.03;;;2.47;;
27939;SDS011;15275;51.716;14.324;2022-10-26T07:07:45;4.85;;;2.97;;
27939;SDS011;15275;51.716;14.324;2022-10-26T07:10:12;6.75;;;3.58;;
27939;SDS011;15275;51.716;14.324;2022-10-26T07:12:39;17.52;;;8.50;;
27939;SDS011;15275;51.716;14.324;2022-10-26T07:15:06;20.35;;;10.35;;
27939;SDS011;15275;51.716;14.324;2022-10-26T07:17:45;46.22;;;20.63;;
27939;SDS011;15275;51.716;14.324;2022-10-26T07:20:19;51.15;;;27.00;;
27939;SDS011;15275;51.716;14.324;2022-10-26T07:22:52;39.40;;;21.27;;
27939;SDS011;15275;51.716;14.324;2022-10-26T07:25:20;24.60;;;13.52;;
27939;SDS011;15275;51.716;14.324;2022-10-26T07:27:48;17.25;;;10.40;;
27939;SDS011;15275;51.716;14.324;2022-10-26T07:30:13;17.38;;;9.82;;
27939;SDS011;15275;51.716;14.324;2022-10-26T07:32:39;25.67;;;13.77;;
27939;SDS011;15275;51.716;14.324;2022-10-26T07:35:06;23.40;;;11.40;;
27939;SDS011;15275;51.716;14.324;2022-10-26T07:37:32;23.48;;;12.50;;
27939;SDS011;15275;51.716;14.324;2022-10-26T07:39:58;13.90;;;7.53;;
27939;SDS011;15275;51.716;14.324;2022-10-26T07:42:24;14.32;;;6.25;;
27939;SDS011;15275;51.716;14.324;2022-10-26T07:44:50;11.35;;;5.38;;
27939;SDS011;15275;51.716;14.324;2022-10-26T07:47:16;5.32;;;3.50;;
27939;SDS011;15275;51.716;14.324;2022-10-26T07:49:41;3.72;;;3.10;;
27939;SDS011;15275;51.716;14.324;2022-10-26T07:52:08;4.95;;;2.47;;
27939;SDS011;15275;51.716;14.324;2022-10-26T07:54:34;3.95;;;2.80;;
27939;SDS011;15275;51.716;14.324;2022-10-26T07:57:00;6.63;;;2.97;;
27939;SDS011;15275;51.716;14.324;2022-10-26T07:59:27;5.43;;;3.47;;
27939;SDS011;15275;51.716;14.324;2022-10-26T08:01:53;7.95;;;3.58;;
27939;SDS011;15275;51.716;14.324;2022-10-26T08:04:19;5.18;;;3.00;;
27939;SDS011;15275;51.716;14.324;2022-10-26T08:06:44;5.60;;;3.20;;
27939;SDS011;15275;51.716;14.324;2022-10-26T08:09:11;4.43;;;3.35;;
27939;SDS011;15275;51.716;14.324;2022-10-26T08:11:37;5.85;;;2.83;;
27939;SDS011;15275;51.716;14.324;2022-10-26T08:14:03;4.65;;;3.13;;
27939;SDS011;15275;51.716;14.324;2022-10-26T08:16:29;3.45;;;2.53;;
27939;SDS011;15275;51.716;14.324;2022-10-26T08:18:55;5.47;;;2.53;;
27939;SDS011;15275;51.716;14.324;2022-10-26T08:21:21;5.30;;;3.15;;
27939;SDS011;15275;51.716;14.324;2022-10-26T08:23:47;4.22;;;2.55;;
27939;SDS011;15275;51.716;14.324;2022-10-26T08:26:13;4.53;;;2.85;;
27939;SDS011;15275;51.716;14.324;2022-10-26T08:28:39;4.20;;;2.58;;
27939;SDS011;15275;51.716;14.324;2022-10-26T08:31:05;5.13;;;2.67;;
27939;SDS011;15275;51.716;14.324;2022-10-26T08:33:31;7.43;;;3.22;;
27939;SDS011;15275;51.716;14.324;2022-10-26T08:35:58;5.35;;;2.75;;
27939;SDS011;15275;51.716;14.324;2022-10-26T08:38:26;6.00;;;2.75;;
27939;SDS011;15275;51.716;14.324;2022-10-26T08:40:53;4.20;;;2.38;;
27939;SDS011;15275;51.716;14.324;2022-10-26T08:43:28;3.60;;;2.40;;
27939;SDS011;15275;51.716;14.324;2022-10-26T08:46:04;3.50;;;2.20;;
27939;SDS011;15275;51.716;14.324;2022-10-26T08:48:43;5.70;;;2.60;;
27939;SDS011;15275;51.716;14.324;2022-10-26T08:51:16;3.70;;;2.30;;
27939;SDS011;15275;51.716;14.324;2022-10-26T08:53:56;8.25;;;2.53;;
27939;SDS011;15275;51.716;14.324;2022-10-26T08:56:26;3.80;;;2.65;;
27939;SDS011;15275;51.716;14.324;2022-10-26T09:02:12;7.82;;;2.55;;
27939;SDS011;15275;51.716;14.324;2022-10-26T09:04:41;5.60;;;2.47;;
27939;SDS011;15275;51.716;14.324;2022-10-26T09:07:11;6.30;;;2.88;;
27939;SDS011;15275;51.716;14.324;2022-10-26T09:15:59;5.95;;;2.22;;
27939;SDS011;15275;51.716;14.324;2022-10-26T09:18:58;4.75;;;2.35;;
27939;SDS011;15275;51.716;14.324;2022-10-26T09:27:46;5.93;;;2.00;;
27939;SDS011;15275;51.716;14.324;2022-10-26T09:30:20;4.30;;;2.20;;
27939;SDS011;15275;51.716;14.324;2022-10-26T09:32:48;5.00;;;2.20;;
27939;SDS011;15275;51.716;14.324;2022-10-26T09:35:25;4.30;;;2.15;;
27939;SDS011;15275;51.716;14.324;2022-10-26T09:38:10;4.68;;;2.40;;
27939;SDS011;15275;51.716;14.324;2022-10-26T09:43:42;7.18;;;2.20;;
27939;SDS011;15275;51.716;14.324;2022-10-26T09:46:26;3.58;;;2.05;;
27939;SDS011;15275;51.716;14.324;2022-10-26T09:49:05;2.17;;;1.73;;
27939;SDS011;15275;51.716;14.324;2022-10-26T09:51:35;4.57;;;2.08;;
27939;SDS011;15275;51.716;14.324;2022-10-26T09:54:04;4.63;;;2.13;;
27939;SDS011;15275;51.716;14.324;2022-10-26T09:56:46;4.22;;;2.17;;
27939;SDS011;15275;51.716;14.324;2022-10-26T09:59:19;3.53;;;1.80;;
27939;SDS011;15275;51.716;14.324;2022-10-26T10:01:48;3.95;;;1.65;;
27939;SDS011;15275;51.716;14.324;2022-10-26T10:06:51;4.88;;;2.00;;
27939;SDS011;15275;51.716;14.324;2022-10-26T10:09:37;2.65;;;1.70;;
27939;SDS011;15275;51.716;14.324;2022-10-26T10:12:03;3.53;;;2.10;;
27939;SDS011;15275;51.716;14.324;2022-10-26T10:14:36;4.55;;;1.70;;
27939;SDS011;15275;51.716;14.324;2022-10-26T10:17:05;4.80;;;2.10;;
27939;SDS011;15275;51.716;14.324;2022-10-26T10:19:43;3.60;;;2.00;;
27939;SDS011;15275;51.716;14.324;2022-10-26T10:25:20;6.13;;;2.10;;
27939;SDS011;15275;51.716;14.324;2022-10-26T10:27:51;4.45;;;2.00;;
27939;SDS011;15275;51.716;14.324;2022-10-26T10:30:22;6.00;;;2.15;;
27939;SDS011;15275;51.716;14.324;2022-10-26T10:33:03;5.43;;;2.33;;
27939;SDS011;15275;51.716;14.324;2022-10-26T10:35:34;3.65;;;2.47;;
27939;SDS011;15275;51.716;14.324;2022-10-26T10:38:00;9.77;;;3.00;;
27939;SDS011;15275;51.716;14.324;2022-10-26T10:40:26;5.47;;;3.03;;
27939;SDS011;15275;51.716;14.324;2022-10-26T10:45:52;8.25;;;2.80;;
27939;SDS011;15275;51.716;14.324;2022-10-26T10:48:21;4.55;;;2.53;;
27939;SDS011;15275;51.716;14.324;2022-10-26T10:50:54;2.70;;;1.40;;
27939;SDS011;15275;51.716;14.324;2022-10-26T10:53:35;3.33;;;1.80;;
27939;SDS011;15275;51.716;14.324;2022-10-26T11:02:21;6.10;;;1.75;;
27939;SDS011;15275;51.716;14.324;2022-10-26T11:07:48;2.38;;;1.80;;
27939;SDS011;15275;51.716;14.324;2022-10-26T11:10:21;8.38;;;2.05;;
27939;SDS011;15275;51.716;14.324;2022-10-26T11:13:01;3.72;;;1.98;;
27939;SDS011;15275;51.716;14.324;2022-10-26T11:15:34;2.97;;;1.60;;
27939;SDS011;15275;51.716;14.324;2022-10-26T11:18:05;3.92;;;1.65;;
27939;SDS011;15275;51.716;14.324;2022-10-26T11:20:49;7.93;;;2.00;;
27939;SDS011;15275;51.716;14.324;2022-10-26T11:26:45;6.78;;;1.90;;
27939;SDS011;15275;51.716;14.324;2022-10-26T11:32:43;7.80;;;2.22;;
27939;SDS011;15275;51.716;14.324;2022-10-26T11:35:36;2.67;;;1.80;;
27939;SDS011;15275;51.716;14.324;2022-10-26T11:46:54;6.30;;;2.92;;
27939;SDS011;15275;51.716;14.324;2022-10-26T11:49:28;5.10;;;1.73;;
27939;SDS011;15275;51.716;14.324;2022-10-26T11:54:53;4.63;;;2.08;;
27939;SDS011;15275;51.716;14.324;2022-10-26T11:59:59;4.68;;;1.98;;
27939;SDS011;15275;51.716;14.324;2022-10-26T12:02:41;3.63;;;1.80;;
27939;SDS011;15275;51.716;14.324;2022-10-26T12:05:20;2.43;;;1.57;;
27939;SDS011;15275;51.716;14.324;2022-10-26T12:07:57;6.00;;;2.00;;
27939;SDS011;15275;51.716;14.324;2022-10-26T12:10:33;4.00;;;1.87;;
27939;SDS011;15275;51.716;14.324;2022-10-26T12:18:47;4.53;;;1.88;;
27939;SDS011;15275;51.716;14.324;2022-10-26T12:21:19;4.13;;;1.45;;
27939;SDS011;15275;51.716;14.324;2022-10-26T12:23:55;4.50;;;2.20;;
27939;SDS011;15275;51.716;14.324;2022-10-26T12:47:58;6.70;;;1.75;;
27939;SDS011;15275;51.716;14.324;2022-10-26T12:49:58;4.63;;;2.13;;
27939;SDS011;15275;51.716;14.324;2022-10-26T12:52:26;3.00;;;1.58;;
27939;SDS011;15275;51.716;14.324;2022-10-26T13:01:10;3.97;;;1.83;;
27939;SDS011;15275;51.716;14.324;2022-10-26T13:04:27;5.22;;;2.10;;
27939;SDS011;15275;51.716;14.324;2022-10-26T13:12:57;3.58;;;2.00;;
27939;SDS011;15275;51.716;14.324;2022-10-26T13:15:28;4.57;;;1.88;;
27939;SDS011;15275;51.716;14.324;2022-10-26T13:18:18;5.13;;;1.80;;
27939;SDS011;15275;51.716;14.324;2022-10-26T13:23:43;5.70;;;2.00;;
27939;SDS011;15275;51.716;14.324;2022-10-26T13:26:13;7.67;;;2.10;;
27939;SDS011;15275;51.716;14.324;2022-10-26T13:28:45;4.78;;;1.85;;
27939;SDS011;15275;51.716;14.324;2022-10-26T13:33:49;2.47;;;1.70;;
27939;SDS011;15275;51.716;14.324;2022-10-26T13:38:59;3.40;;;2.08;;
27939;SDS011;15275;51.716;14.324;2022-10-26T13:41:35;2.78;;;1.88;;
27939;SDS011;15275;51.716;14.324;2022-10-26T13:44:06;3.90;;;2.47;;
27939;SDS011;15275;51.716;14.324;2022-10-26T13:46:40;4.85;;;2.00;;
27939;SDS011;15275;51.716;14.324;2022-10-26T13:49:12;5.75;;;2.35;;
27939;SDS011;15275;51.716;14.324;2022-10-26T13:51:47;5.00;;;2.65;;
27939;SDS011;15275;51.716;14.324;2022-10-26T13:54:35;4.28;;;2.13;;
27939;SDS011;15275;51.716;14.324;2022-10-26T13:57:16;3.75;;;2.53;;
27939;SDS011;15275;51.716;14.324;2022-10-26T13:59:47;3.50;;;2.47;;
27939;SDS011;15275;51.716;14.324;2022-10-26T14:02:15;4.55;;;2.45;;
27939;SDS011;15275;51.716;14.324;2022-10-26T14:04:44;6.13;;;2.47;;
27939;SDS011;15275;51.716;14.324;2022-10-26T14:07:16;4.47;;;2.25;;
27939;SDS011;15275;51.716;14.324;2022-10-26T14:09:54;4.15;;;2.13;;
27939;SDS011;15275;51.716;14.324;2022-10-26T14:12:22;5.88;;;2.45;;
27939;SDS011;15275;51.716;14.324;2022-10-26T14:14:50;4.90;;;2.25;;
27939;SDS011;15275;51.716;14.324;2022-10-26T14:17:18;3.47;;;1.98;;
27939;SDS011;15275;51.716;14.324;2022-10-26T14:19:47;4.18;;;2.40;;
27939;SDS011;15275;51.716;14.324;2022-10-26T14:22:20;3.75;;;2.45;;
27939;SDS011;15275;51.716;14.324;2022-10-26T14:24:55;5.93;;;2.13;;
27939;SDS011;15275;51.716;14.324;2022-10-26T14:27:29;6.50;;;2.50;;
27939;SDS011;15275;51.716;14.324;2022-10-26T14:34:53;7.35;;;2.45;;
27939;SDS011;15275;51.716;14.324;2022-10-26T14:40:17;5.15;;;2.70;;
27939;SDS011;15275;51.716;14.324;2022-10-26T14:42:47;4.07;;;2.22;;
27939;SDS011;15275;51.716;14.324;2022-10-26T14:45:29;3.58;;;2.15;;
27939;SDS011;15275;51.716;14.324;2022-10-26T14:47:58;4.78;;;2.05;;
27939;SDS011;15275;51.716;14.324;2022-10-26T14:50:26;5.45;;;2.25;;
27939;SDS011;15275;51.716;14.324;2022-10-26T14:52:58;6.20;;;1.90;;
27939;SDS011;15275;51.716;14.324;2022-10-26T14:55:29;4.05;;;1.77;;
27939;SDS011;15275;51.716;14.324;2022-10-26T14:58:22;7.07;;;2.25;;
27939;SDS011;15275;51.716;14.324;2022-10-26T15:03:56;6.35;;;2.50;;
27939;SDS011;15275;51.716;14.324;2022-10-26T15:06:30;3.35;;;1.95;;
27939;SDS011;15275;51.716;14.324;2022-10-26T15:09:04;3.63;;;2.10;;
27939;SDS011;15275;51.716;14.324;2022-10-26T15:11:31;2.42;;;1.60;;
27939;SDS011;15275;51.716;14.324;2022-10-26T15:13:59;5.00;;;2.25;;
27939;SDS011;15275;51.716;14.324;2022-10-26T15:16:28;21.10;;;4.15;;
27939;SDS011;15275;51.716;14.324;2022-10-26T15:18:58;8.90;;;4.53;;
27939;SDS011;15275;51.716;14.324;2022-10-26T15:21:34;9.02;;;5.07;;
27939;SDS011;15275;51.716;14.324;2022-10-26T15:24:39;8.95;;;4.25;;
27939;SDS011;15275;51.716;14.324;2022-10-26T15:27:01;6.32;;;3.65;;
27939;SDS011;15275;51.716;14.324;2022-10-26T15:32:20;10.52;;;4.30;;
27939;SDS011;15275;51.716;14.324;2022-10-26T15:37:56;5.57;;;3.28;;
27939;SDS011;15275;51.716;14.324;2022-10-26T15:40:23;5.10;;;3.17;;
27939;SDS011;15275;51.716;14.324;2022-10-26T15:42:51;5.53;;;2.92;;
27939;SDS011;15275;51.716;14.324;2022-10-26T15:45:22;5.05;;;2.80;;
27939;SDS011;15275;51.716;14.324;2022-10-26T15:47:55;5.72;;;2.97;;
27939;SDS011;15275;51.716;14.324;2022-10-26T15:50:24;5.40;;;3.05;;
27939;SDS011;15275;51.716;14.324;2022-10-26T15:53:02;5.55;;;2.92;;
27939;SDS011;15275;51.716;14.324;2022-10-26T15:55:40;4.38;;;2.63;;
27939;SDS011;15275;51.716;14.324;2022-10-26T15:58:07;6.03;;;3.13;;
27939;SDS011;15275;51.716;14.324;2022-10-26T16:00:35;4.75;;;3.10;;
27939;SDS011;15275;51.716;14.324;2022-10-26T16:03:02;6.03;;;2.80;;
27939;SDS011;15275;51.716;14.324;2022-10-26T16:05:28;5.82;;;2.75;;
27939;SDS011;15275;51.716;14.324;2022-10-26T16:07:53;4.72;;;2.92;;
27939;SDS011;15275;51.716;14.324;2022-10-26T16:10:21;4.10;;;2.63;;
27939;SDS011;15275;51.716;14.324;2022-10-26T16:12:49;3.92;;;2.17;;
27939;SDS011;15275;51.716;14.324;2022-10-26T16:15:20;3.67;;;2.58;;
27939;SDS011;15275;51.716;14.324;2022-10-26T16:17:48;4.68;;;2.90;;
27939;SDS011;15275;51.716;14.324;2022-10-26T16:20:16;6.60;;;2.72;;
27939;SDS011;15275;51.716;14.324;2022-10-26T16:22:47;4.70;;;2.90;;
27939;SDS011;15275;51.716;14.324;2022-10-26T16:25:14;6.38;;;2.45;;
27939;SDS011;15275;51.716;14.324;2022-10-26T16:27:42;4.78;;;2.67;;
27939;SDS011;15275;51.716;14.324;2022-10-26T16:30:09;6.25;;;3.00;;
27939;SDS011;15275;51.716;14.324;2022-10-26T16:32:37;8.75;;;2.75;;
27939;SDS011;15275;51.716;14.324;2022-10-26T16:35:04;3.88;;;2.67;;
27939;SDS011;15275;51.716;14.324;2022-10-26T16:37:30;6.22;;;3.17;;
27939;SDS011;15275;51.716;14.324;2022-10-26T16:39:56;7.53;;;2.45;;
27939;SDS011;15275;51.716;14.324;2022-10-26T16:42:23;3.97;;;2.40;;
27939;SDS011;15275;51.716;14.324;2022-10-26T16:44:49;4.22;;;2.65;;
27939;SDS011;15275;51.716;14.324;2022-10-26T16:47:16;5.45;;;2.60;;
27939;SDS011;15275;51.716;14.324;2022-10-26T16:49:43;4.55;;;2.72;;
27939;SDS011;15275;51.716;14.324;2022-10-26T16:52:09;3.95;;;2.65;;
27939;SDS011;15275;51.716;14.324;2022-10-26T16:54:35;7.47;;;2.53;;
27939;SDS011;15275;51.716;14.324;2022-10-26T16:57:01;9.38;;;2.90;;
27939;SDS011;15275;51.716;14.324;2022-10-26T16:59:28;4.80;;;2.50;;
27939;SDS011;15275;51.716;14.324;2022-10-26T17:01:54;4.00;;;2.35;;
27939;SDS011;15275;51.716;14.324;2022-10-26T17:04:20;6.38;;;2.70;;
27939;SDS011;15275;51.716;14.324;2022-10-26T17:06:46;4.20;;;2.20;;
27939;SDS011;15275;51.716;14.324;2022-10-26T17:09:11;4.88;;;2.80;;
27939;SDS011;15275;51.716;14.324;2022-10-26T17:11:37;5.22;;;2.70;;
27939;SDS011;15275;51.716;14.324;2022-10-26T17:14:03;3.13;;;2.45;;
27939;SDS011;15275;51.716;14.324;2022-10-26T17:16:29;3.38;;;2.38;;
27939;SDS011;15275;51.716;14.324;2022-10-26T17:18:55;6.32;;;2.50;;
27939;SDS011;15275;51.716;14.324;2022-10-26T17:21:28;6.55;;;2.67;;
27939;SDS011;15275;51.716;14.324;2022-10-26T17:23:58;3.13;;;2.45;;
27939;SDS011;15275;51.716;14.324;2022-10-26T17:26:25;5.63;;;2.58;;
27939;SDS011;15275;51.716;14.324;2022-10-26T17:28:51;4.55;;;2.47;;
27939;SDS011;15275;51.716;14.324;2022-10-26T17:31:20;5.65;;;2.67;;
27939;SDS011;15275;51.716;14.324;2022-10-26T17:33:47;7.70;;;3.42;;